Clarksburg, WV

5:08 AM EDT on August 30, 2014 (GMT -0400)
North View | Change Station
CLOSE
Current Station
Personal Weather Station
Location: Clarksburg, WV
Elevation: 1045 ft
Nearby Weather Stations

Elev 1045 ft 39.30 °N, 80.35 °W | Updated 4 seconds ago

Clear
Clear
62.3 °F
Feels Like 62.3 °F
N
0.0
Wind Variable Wind from WNW
Gusts 0.0 mph

Today
High -- | Low -- °F
--% Chance of Precip.
Yesterday
High -- | Low -- °F
Precip. -- in
6:48 AM 7:55 PM
Waxing Crescent, 20% visible
Pressure 30.09 in
Visibility 10.0 miles
Clouds Clear
Dew Point 61 °F
Humidity 96%
Rainfall 0.00 in
Snow Depth Not available.
UV 0 out of 12
Pollen 9.40 out of 12
Air Quality Not available.
Flu Activity Not available.
METAR KCKB 300853Z AUTO 00000KT 10SM CLR 17/16 A3013 RMK AO2 SLP190 T01670156 55002 TSNO

More Conditions Fewer Conditions

Pressure 30.09 in
Visibility 10.0 miles
Clouds Clear
Dew Point 61 °F
Humidity 96%
Rainfall 0.00 in
Snow Depth Not available.
UV 0 out of 12
Pollen 9.40 out of 12
Air Quality Not available.
Flu Activity Not available.
METAR KCKB 300853Z AUTO 00000KT 10SM CLR 17/16 A3013 RMK AO2 SLP190 T01670156 55002 TSNO

More Conditions Fewer Conditions

10-Day Weather Forecast

Almanac

Astronomy

Aug. 30, 2014 Rise Set
Actual Time 6:48 AM EDT 7:55 PM EDT
Civil Twilight 6:20 AM EDT 8:22 PM EDT
Nautical Twilight 5:47 AM EDT 8:55 PM EDT
Astronomical Twilight 5:13 AM EDT 9:29 PM EDT
Moon 11:32 AM EDT 10:30 PM EDT
Length of Visible Light 14h 02m
Length of Day
13h 07m
Tomorrow will be 2m 26s shorter.
Waxing Crescent, 20% of the Moon is Illuminated
Today
Waxing Crescent
Sep 2
First Quarter
Sep 8
Full
Sep 15
Last Quarter
Sep 24
New

Today's Extremes

State Highs State Lows

Community

WunderPhotos

Upload Photos

1,748,474 photos uploaded!

Nearby

Snow Depth

Station Depth Elevation
No new snow has been reported.

Earthquake Activity

City Distance Mag. Time & Date
No recent earthquake activity has been reported nearby.
Minimum magnitude displayed is 2.5.

Coastal Water Temperatures

Place Temperature
No Stations Reporting

Nearby Weather Stations